createdAt,value
2022-08-07T00:00:40.846Z,49.9
2022-08-07T00:02:35.664Z,50.2
2022-08-07T00:02:46.274Z,50.3
2022-08-07T00:03:49.189Z,50.4
2022-08-07T00:04:51.288Z,50.3
2022-08-07T00:05:54.390Z,50.4
2022-08-07T00:06:56.274Z,50.6
2022-08-07T00:08:00.395Z,50.5
2022-08-07T00:09:00.338Z,50.4
2022-08-07T00:10:19.548Z,50.4
2022-08-07T00:11:04.928Z,50.5
2022-08-07T00:12:06.279Z,50.5
2022-08-07T00:13:09.789Z,50.5
2022-08-07T00:14:10.319Z,50.5
2022-08-07T00:15:12.350Z,50.5
2022-08-07T00:16:17.352Z,50.5
2022-08-07T00:17:16.295Z,50.5
2022-08-07T00:18:18.975Z,50.5
2022-08-07T00:19:21.453Z,50.7
2022-08-07T00:20:29.668Z,50.8
2022-08-07T00:21:55.766Z,50.9
2022-08-07T00:22:35.001Z,51
2022-08-07T00:23:30.141Z,51
2022-08-07T00:24:31.644Z,51.1
2022-08-07T00:25:37.170Z,51.2
2022-08-07T00:26:49.612Z,51.3
2022-08-07T00:27:51.994Z,51.4
2022-08-07T00:28:45.814Z,51.5
2022-08-07T00:29:41.298Z,51.6
2022-08-07T00:30:43.328Z,51.7
2022-08-07T00:31:45.785Z,51.7
2022-08-07T00:32:48.224Z,51.8
2022-08-07T00:33:50.317Z,51.9
2022-08-07T00:34:52.313Z,52.1
2022-08-07T00:35:54.308Z,52.1
2022-08-07T00:36:56.335Z,52.2
2022-08-07T00:37:58.343Z,52.1
2022-08-07T00:39:00.402Z,52.1
2022-08-07T00:40:02.393Z,52.1
2022-08-07T00:41:04.303Z,52.1
2022-08-07T00:42:06.314Z,52
2022-08-07T00:43:09.541Z,52.2
2022-08-07T00:44:10.312Z,52.3
2022-08-07T00:45:16.099Z,52.3
2022-08-07T00:46:15.051Z,52.4
2022-08-07T00:48:08.476Z,52.5
2022-08-07T00:48:18.746Z,52.5
2022-08-07T00:49:24.732Z,52.6
2022-08-07T00:50:43.850Z,52.7
2022-08-07T00:51:24.354Z,52.7
2022-08-07T00:52:26.591Z,52.9
2022-08-07T00:53:38.704Z,53
2022-08-07T00:54:30.358Z,53.1
2022-08-07T00:56:00.976Z,53.2
2022-08-07T00:56:34.363Z,53.4
2022-08-07T00:57:36.466Z,53.5
2022-08-07T00:58:38.387Z,53.6
2022-08-07T00:59:40.353Z,53.7
2022-08-07T01:00:51.325Z,53.8
2022-08-07T01:01:44.885Z,53.8
2022-08-07T01:02:46.382Z,53.8
2022-08-07T01:03:55.037Z,53.8
2022-08-07T01:04:50.385Z,53.7
2022-08-07T01:05:53.534Z,53.7
2022-08-07T01:06:55.429Z,53.7
2022-08-07T01:07:57.481Z,53.7
2022-08-07T01:09:00.873Z,53.8
2022-08-07T01:10:05.395Z,53.7
2022-08-07T01:11:10.757Z,53.9
2022-08-07T01:12:09.656Z,54
2022-08-07T01:13:07.425Z,54
2022-08-07T01:14:09.372Z,54
2022-08-07T01:15:11.842Z,54
2022-08-07T01:16:13.414Z,54
2022-08-07T01:17:15.403Z,53.9
2022-08-07T01:18:17.789Z,54
2022-08-07T01:19:19.777Z,54.2
2022-08-07T01:20:21.579Z,54.2
2022-08-07T01:21:24.412Z,54.3
2022-08-07T01:22:29.243Z,54.4
2022-08-07T01:23:34.747Z,54.5
2022-08-07T01:24:29.400Z,54.4
2022-08-07T01:25:40.732Z,54.4
2022-08-07T01:26:33.399Z,54.5
2022-08-07T01:27:35.546Z,54.5
2022-08-07T01:28:37.401Z,54.5
2022-08-07T01:29:39.942Z,54.4
2022-08-07T01:30:42.115Z,54.6
2022-08-07T01:31:46.109Z,54.7
2022-08-07T01:32:45.409Z,54.8
2022-08-07T01:33:52.032Z,54.8
2022-08-07T01:34:49.450Z,54.9
2022-08-07T01:35:53.873Z,54.9
2022-08-07T01:36:57.845Z,54.9
2022-08-07T01:37:55.444Z,54.8
2022-08-07T01:38:57.519Z,54.9
2022-08-07T01:39:59.496Z,55
2022-08-07T01:41:01.423Z,55.1
2022-08-07T01:42:07.750Z,55.3
2022-08-07T01:43:05.428Z,55.5
2022-08-07T01:44:07.483Z,55.4
2022-08-07T01:45:09.621Z,55.5
2022-08-07T01:46:12.218Z,55.6
2022-08-07T01:47:14.734Z,55.4
2022-08-07T01:48:18.773Z,55.4
2022-08-07T01:49:17.475Z,55.4
2022-08-07T01:50:22.660Z,55.4
2022-08-07T01:51:24.849Z,55.6
2022-08-07T01:52:23.439Z,55.5
2022-08-07T01:54:09.822Z,55.5
2022-08-07T01:54:33.461Z,55.3
2022-08-07T01:55:29.466Z,55.6
2022-08-07T01:56:32.804Z,55.9
2022-08-07T01:57:34.192Z,55.9
2022-08-07T01:58:37.588Z,55.9
2022-08-07T01:59:37.498Z,56
2022-08-07T02:00:45.508Z,56.1
2022-08-07T02:01:59.582Z,56.1
2022-08-07T02:03:12.686Z,56
2022-08-07T02:03:49.149Z,56
2022-08-07T02:04:52.761Z,55.9
2022-08-07T02:05:55.306Z,55.9
2022-08-07T02:06:51.459Z,55.8
2022-08-07T02:07:53.687Z,55.7
2022-08-07T02:08:55.472Z,55.7
2022-08-07T02:09:58.346Z,55.8
2022-08-07T02:10:59.703Z,55.9
2022-08-07T02:12:03.205Z,55.8
2022-08-07T02:13:03.470Z,55.8
2022-08-07T02:14:05.463Z,55.8
2022-08-07T02:15:07.530Z,55.8
2022-08-07T02:16:11.911Z,55.9
2022-08-07T02:17:11.481Z,55.8
2022-08-07T02:18:13.496Z,55.8
2022-08-07T02:20:03.682Z,55.7
2022-08-07T02:20:19.981Z,55.7
2022-08-07T02:21:19.479Z,55.6
2022-08-07T02:22:21.472Z,55.8
2022-08-07T02:23:23.854Z,55.7
2022-08-07T02:24:25.479Z,55.6
2022-08-07T02:25:32.094Z,55.5
2022-08-07T02:26:32.177Z,55.6
2022-08-07T02:27:34.079Z,55.7
2022-08-07T02:28:33.489Z,55.7
2022-08-07T02:29:36.767Z,55.7
2022-08-07T02:30:37.587Z,55.6
2022-08-07T02:31:39.524Z,55.6
2022-08-07T02:32:59.981Z,55.5
2022-08-07T02:34:01.602Z,55.4
2022-08-07T02:34:48.859Z,55.4
2022-08-07T02:36:27.706Z,55.6
2022-08-07T02:36:49.498Z,55.4
2022-08-07T02:37:51.514Z,55.3
2022-08-07T02:38:56.666Z,55.5
2022-08-07T02:40:02.707Z,55.5
2022-08-07T02:40:57.931Z,55.6
2022-08-07T02:41:59.545Z,55.6
2022-08-07T02:43:01.544Z,55.7
2022-08-07T02:44:03.655Z,55.7
2022-08-07T02:45:07.358Z,55.7
2022-08-07T02:46:07.543Z,55.6
2022-08-07T02:47:19.374Z,55.5
2022-08-07T02:48:15.438Z,55.6
2022-08-07T02:49:28.542Z,55.5
2022-08-07T02:50:18.396Z,55.5
2022-08-07T02:51:29.147Z,55.6
2022-08-07T02:52:21.635Z,55.8
2022-08-07T02:53:23.562Z,55.9
2022-08-07T02:54:25.540Z,55.9
2022-08-07T02:56:02.921Z,56
2022-08-07T02:56:29.533Z,56.1
2022-08-07T02:57:34.278Z,56.4
2022-08-07T02:58:33.924Z,56.6
2022-08-07T02:59:35.531Z,56.7
2022-08-07T03:00:39.170Z,56.9
2022-08-07T03:01:39.928Z,57
2022-08-07T03:02:42.025Z,57.1
2022-08-07T03:03:49.605Z,57.2
2022-08-07T03:04:45.571Z,57.1
2022-08-07T03:05:47.622Z,57.2
2022-08-07T03:06:49.539Z,57.2
2022-08-07T03:08:05.573Z,57.3
2022-08-07T03:08:53.572Z,57.3
2022-08-07T03:09:55.577Z,57.4
2022-08-07T03:10:58.400Z,57.3
2022-08-07T03:12:02.656Z,57.2
2022-08-07T03:13:01.557Z,57.3
2022-08-07T03:14:03.598Z,57.2
2022-08-07T03:15:07.410Z,57.1
2022-08-07T03:16:07.574Z,57.3
2022-08-07T03:17:09.566Z,57.3
2022-08-07T03:18:11.569Z,57.3
2022-08-07T03:19:13.771Z,57.5
2022-08-07T03:20:15.557Z,57.4
2022-08-07T03:21:19.003Z,57.3
2022-08-07T03:22:19.581Z,57.3
2022-08-07T03:23:21.596Z,57.4
2022-08-07T03:24:27.166Z,57.5
2022-08-07T03:25:25.585Z,57.4
2022-08-07T03:26:27.582Z,57.4
2022-08-07T03:27:30.150Z,57.4
2022-08-07T03:28:37.055Z,57.3
2022-08-07T03:29:33.666Z,57.2
2022-08-07T03:30:35.627Z,57.2
2022-08-07T03:31:42.192Z,57.3
2022-08-07T03:32:39.605Z,57.5
2022-08-07T03:33:41.684Z,57.5
2022-08-07T03:34:47.082Z,57.6
2022-08-07T03:35:50.329Z,57.7
2022-08-07T03:36:47.608Z,57.5
2022-08-07T03:37:53.482Z,57.5
2022-08-07T03:38:51.604Z,57.4
2022-08-07T03:39:59.221Z,57.5
2022-08-07T03:40:57.543Z,57.6
2022-08-07T03:41:57.619Z,57.5
2022-08-07T03:42:59.608Z,57.5
2022-08-07T03:44:04.375Z,57.4
2022-08-07T03:45:05.617Z,57.3
2022-08-07T03:46:10.271Z,57.2
2022-08-07T03:47:11.545Z,57.2
2022-08-07T03:48:11.730Z,57.1
2022-08-07T03:49:13.638Z,57.2
2022-08-07T03:50:15.626Z,57.4
2022-08-07T03:51:17.621Z,57.6
2022-08-07T03:52:22.492Z,57.7
2022-08-07T03:53:30.357Z,57.9
2022-08-07T03:54:33.524Z,58.2
2022-08-07T03:55:42.831Z,58.3
2022-08-07T03:56:32.930Z,58.3
2022-08-07T03:58:32.810Z,58.4
2022-08-07T03:58:35.741Z,58.5
2022-08-07T03:59:33.611Z,58.6
2022-08-07T04:00:36.511Z,58.6
2022-08-07T04:01:37.736Z,58.5
2022-08-07T04:02:41.227Z,58.6
2022-08-07T04:03:50.108Z,58.4
2022-08-07T04:04:45.077Z,58.1
2022-08-07T04:05:45.808Z,58.1
2022-08-07T04:06:51.069Z,58.1
2022-08-07T04:07:49.894Z,57.9
2022-08-07T04:08:51.654Z,57.8
2022-08-07T04:09:53.644Z,57.9
2022-08-07T04:12:15.455Z,57.9
2022-08-07T04:12:26.040Z,57.8
2022-08-07T04:12:59.730Z,57.7
2022-08-07T04:14:09.773Z,57.7
2022-08-07T04:15:04.931Z,57.5
2022-08-07T04:16:05.647Z,57.3
2022-08-07T04:17:16.527Z,57.1
2022-08-07T04:18:31.657Z,56.9
2022-08-07T04:19:12.485Z,57
2022-08-07T04:20:13.676Z,57
2022-08-07T04:21:16.436Z,56.9
2022-08-07T04:22:17.724Z,56.6
2022-08-07T04:23:19.687Z,56.7
2022-08-07T04:24:26.916Z,56.6
2022-08-07T04:25:23.678Z,56.3
2022-08-07T04:26:28.469Z,56
2022-08-07T04:27:27.719Z,55.8
2022-08-07T04:28:29.677Z,55.9
2022-08-07T04:29:40.492Z,55.9
2022-08-07T04:30:35.392Z,55.6
2022-08-07T04:31:38.548Z,55.6
2022-08-07T04:32:37.684Z,55.7
2022-08-07T04:33:39.665Z,55.6
2022-08-07T04:34:41.759Z,55.5
2022-08-07T04:35:43.663Z,55.3
2022-08-07T04:36:48.794Z,55.3
2022-08-07T04:38:01.316Z,55.1
2022-08-07T04:38:49.703Z,55.1
2022-08-07T04:39:51.780Z,55
2022-08-07T04:40:56.616Z,55.1
2022-08-07T04:41:55.699Z,54.9
2022-08-07T04:43:01.537Z,55
2022-08-07T04:44:11.106Z,54.9
2022-08-07T04:45:03.180Z,54.9
2022-08-07T04:46:03.715Z,54.7
2022-08-07T04:47:08.052Z,54.5
2022-08-07T04:48:10.405Z,54.2
2022-08-07T04:49:15.009Z,54.4
2022-08-07T04:50:11.694Z,54.4
2022-08-07T04:51:14.051Z,54.4
2022-08-07T04:52:15.738Z,54.4
2022-08-07T04:53:27.969Z,54.2
2022-08-07T04:54:19.749Z,53.9
2022-08-07T04:58:08.595Z,54
2022-08-07T04:58:08.673Z,53.9
2022-08-07T04:58:09.320Z,53.9
2022-08-07T04:58:47.384Z,54.1
2022-08-07T05:00:09.146Z,54.2
2022-08-07T05:00:32.494Z,54.2
2022-08-07T05:01:33.850Z,54.3
2022-08-07T05:02:35.768Z,54.4
2022-08-07T05:04:01.196Z,54.1
2022-08-07T05:04:43.852Z,53.7
2022-08-07T05:05:52.380Z,53.7
2022-08-07T05:06:51.409Z,53.5
2022-08-07T05:07:48.460Z,53.4
2022-08-07T05:09:00.375Z,53.3
2022-08-07T05:09:49.773Z,53.2
2022-08-07T05:10:58.317Z,53.2
2022-08-07T05:11:56.626Z,53.1
2022-08-07T05:12:58.563Z,52.8
2022-08-07T05:14:45.827Z,52.6
2022-08-07T05:15:03.396Z,52.4
2022-08-07T05:16:04.431Z,52.3
2022-08-07T05:17:05.834Z,52.3
2022-08-07T05:18:06.322Z,52.2
2022-08-07T05:19:07.760Z,52.1
2022-08-07T05:20:10.155Z,52
2022-08-07T05:21:11.753Z,51.8
2022-08-07T05:22:13.837Z,51.7
2022-08-07T05:23:16.334Z,51.8
2022-08-07T05:24:17.813Z,51.6
2022-08-07T05:25:25.369Z,51.6
2022-08-07T05:26:23.899Z,51.7
2022-08-07T05:28:15.632Z,51.7
2022-08-07T05:28:26.919Z,51.8
2022-08-07T05:29:27.842Z,51.8
2022-08-07T05:30:30.409Z,51.8
2022-08-07T05:31:34.887Z,51.7
2022-08-07T05:32:33.828Z,51.5
2022-08-07T05:33:36.971Z,51.1
2022-08-07T05:34:37.777Z,51.3
2022-08-07T05:35:41.669Z,51.8
2022-08-07T05:36:41.774Z,51.6
2022-08-07T05:37:43.841Z,51.1
2022-08-07T05:38:58.755Z,51.1
2022-08-07T05:40:06.143Z,51.2
2022-08-07T05:40:51.934Z,51.2
2022-08-07T05:42:00.955Z,51.2
2022-08-07T05:42:56.121Z,51.2
2022-08-07T05:44:08.923Z,51.1
2022-08-07T05:45:04.724Z,51.3
2022-08-07T05:46:00.771Z,51.5
2022-08-07T05:47:18.512Z,51.5
2022-08-07T05:48:05.122Z,51.8
2022-08-07T05:49:09.047Z,51.9
2022-08-07T05:50:08.818Z,52
2022-08-07T05:51:10.798Z,51.7
2022-08-07T05:52:12.836Z,51.9
2022-08-07T05:54:08.828Z,52.3
2022-08-07T05:54:30.378Z,52.4
2022-08-07T05:55:18.807Z,52.2
2022-08-07T05:56:20.830Z,52
2022-08-07T05:57:22.826Z,51.9
2022-08-07T05:58:30.233Z,51.9
2022-08-07T05:59:27.346Z,52.2
2022-08-07T06:00:28.841Z,52.6
2022-08-07T06:01:34.705Z,52.5
2022-08-07T06:02:32.849Z,52.2
2022-08-07T06:03:53.310Z,52.7
2022-08-07T06:04:36.822Z,52.9
2022-08-07T06:05:40.578Z,52.7
2022-08-07T06:06:45.835Z,52.5
2022-08-07T06:08:05.530Z,52.3
2022-08-07T06:08:45.024Z,52.3
2022-08-07T06:10:04.923Z,52.1
2022-08-07T06:10:51.185Z,51.7
2022-08-07T06:11:50.870Z,51.9
2022-08-07T06:12:52.883Z,52
2022-08-07T06:14:11.345Z,51.9
2022-08-07T06:14:58.753Z,52.2
2022-08-07T06:15:58.933Z,52.2
2022-08-07T06:17:00.851Z,52
2022-08-07T06:18:02.879Z,51.5
2022-08-07T06:19:06.543Z,51.1
2022-08-07T06:20:12.496Z,50.6
2022-08-07T06:22:11.498Z,50.2
2022-08-07T06:22:12.363Z,49.2
2022-08-07T06:23:25.295Z,48
2022-08-07T06:24:39.026Z,47.1
2022-08-07T06:25:16.852Z,46.4
2022-08-07T06:26:18.899Z,45.7
2022-08-07T06:27:22.904Z,44.4
2022-08-07T06:28:27.264Z,43.1
2022-08-07T06:29:24.875Z,41.8
2022-08-07T06:30:32.350Z,40.7
2022-08-07T06:31:38.740Z,39.9
2022-08-07T06:32:32.622Z,39.1
2022-08-07T06:33:33.253Z,38.7
2022-08-07T06:34:34.867Z,38
2022-08-07T06:35:39.236Z,37.6
2022-08-07T06:36:38.872Z,37.3
2022-08-07T06:37:43.367Z,36.6
2022-08-07T06:38:51.554Z,36.6
2022-08-07T06:40:13.961Z,36.2
2022-08-07T06:40:46.935Z,36.1
2022-08-07T06:42:02.762Z,36
2022-08-07T06:42:55.915Z,35.7
2022-08-07T06:43:59.366Z,35.4
2022-08-07T06:44:59.890Z,35
2022-08-07T06:46:04.186Z,34.3
2022-08-07T06:47:38.636Z,34.1
2022-08-07T06:48:38.918Z,33.5
2022-08-07T06:49:58.808Z,32.7
2022-08-07T06:51:16.666Z,32.5
2022-08-07T06:52:18.917Z,32.9
2022-08-07T06:54:12.252Z,33.2
2022-08-07T06:55:30.432Z,33.3
2022-08-07T06:55:30.795Z,33.3
2022-08-07T06:56:30.028Z,33
2022-08-07T06:57:47.724Z,32.7
2022-08-07T07:00:11.085Z,32.8
2022-08-07T07:00:11.286Z,32.7
2022-08-07T07:00:52.879Z,32.5
2022-08-07T07:01:53.979Z,32.2
2022-08-07T07:02:57.825Z,31.7
2022-08-07T07:04:05.644Z,32
2022-08-07T07:05:03.296Z,31.8
2022-08-07T07:06:06.335Z,31.7
2022-08-07T07:07:10.608Z,31.9
2022-08-07T07:08:10.150Z,31.9
2022-08-07T07:09:11.022Z,31.7
2022-08-07T07:10:12.926Z,31.4
2022-08-07T07:12:07.051Z,31.5
2022-08-07T07:12:23.778Z,31.6
2022-08-07T07:13:41.690Z,31.2
2022-08-07T07:14:21.745Z,31.2
2022-08-07T07:15:24.248Z,30.8
2022-08-07T07:16:27.374Z,30.7
2022-08-07T07:17:28.754Z,30.3
2022-08-07T07:18:46.903Z,30.3
2022-08-07T07:19:56.652Z,30.7
2022-08-07T07:20:32.956Z,30.7
2022-08-07T07:21:40.141Z,30.4
2022-08-07T07:22:43.297Z,30.6
2022-08-07T07:24:07.023Z,31.3
2022-08-07T07:24:42.887Z,31.7
2022-08-07T07:26:33.716Z,32.6
2022-08-07T07:26:49.793Z,32.9
2022-08-07T07:27:55.436Z,32.6
2022-08-07T07:29:40.950Z,32.3
2022-08-07T07:29:57.330Z,31.9
2022-08-07T07:30:53.031Z,31.7
2022-08-07T07:31:54.992Z,31.5
2022-08-07T07:32:57.008Z,31.5
2022-08-07T07:33:58.966Z,31.2
2022-08-07T07:35:00.986Z,31
2022-08-07T07:36:05.132Z,30.9
2022-08-07T07:37:05.721Z,30.9
2022-08-07T07:38:07.281Z,30.7
2022-08-07T07:39:09.066Z,30.4
2022-08-07T07:40:15.046Z,30.8
2022-08-07T07:41:13.022Z,30.8
2022-08-07T07:42:17.590Z,31.1
2022-08-07T07:43:18.448Z,31.4
2022-08-07T07:44:21.716Z,31.5
2022-08-07T07:45:21.050Z,31.5
2022-08-07T07:46:36.337Z,31.4
2022-08-07T07:47:25.109Z,31.1
2022-08-07T07:48:35.464Z,30.8
2022-08-07T07:50:31.777Z,31.1
2022-08-07T07:50:38.467Z,30.6
2022-08-07T07:51:33.065Z,30.8
2022-08-07T07:52:35.041Z,31.1
2022-08-07T07:53:38.937Z,31.8
2022-08-07T07:54:39.903Z,32.4
2022-08-07T07:55:45.498Z,32.7
2022-08-07T07:56:43.021Z,32.6
2022-08-07T07:57:52.687Z,31.5
2022-08-07T07:58:47.097Z,31.4
2022-08-07T07:59:51.821Z,31.2
2022-08-07T08:00:53.972Z,30.5
2022-08-07T08:02:01.324Z,30.3
2022-08-07T08:03:00.989Z,29.8
2022-08-07T08:04:06.682Z,29.4
2022-08-07T08:04:59.183Z,29.4
2022-08-07T08:06:01.075Z,29.2
2022-08-07T08:07:07.725Z,28.5
2022-08-07T08:08:05.072Z,27.9
2022-08-07T08:09:07.049Z,27.3
2022-08-07T08:10:09.127Z,26.8
2022-08-07T08:11:13.805Z,26.9
2022-08-07T08:12:19.257Z,27.3
2022-08-07T08:16:29.762Z,26.2
2022-08-07T08:21:00.946Z,25.1
2022-08-07T08:22:03.792Z,25
2022-08-07T08:23:04.919Z,25.2
2022-08-07T08:24:06.941Z,25.3
2022-08-07T08:25:18.242Z,25
2022-08-07T08:26:10.965Z,25
2022-08-07T08:27:12.936Z,25.4
2022-08-07T08:28:16.771Z,25
2022-08-07T08:29:16.915Z,24.5
2022-08-07T08:30:19.667Z,24.4
2022-08-07T08:31:22.706Z,24.3
2022-08-07T08:32:25.019Z,24.1
2022-08-07T08:33:24.939Z,23.9
2022-08-07T08:34:29.065Z,24.1
2022-08-07T08:35:39.186Z,23.3
2022-08-07T08:36:30.956Z,23.1
2022-08-07T08:40:57.968Z,23.3
2022-08-07T08:42:00.149Z,23.8
2022-08-07T08:43:01.971Z,23.6
2022-08-07T08:44:05.026Z,24.2
2022-08-07T08:45:13.160Z,25.1
2022-08-07T08:46:08.962Z,25.6
2022-08-07T08:47:11.331Z,25.7
2022-08-07T08:48:12.952Z,25.3
2022-08-07T08:49:15.020Z,25.2
2022-08-07T08:50:28.545Z,24.8
2022-08-07T08:51:23.275Z,24.1
2022-08-07T08:52:21.011Z,24.1
2022-08-07T08:53:29.360Z,24.3
2022-08-07T08:54:29.045Z,24.5
2022-08-07T08:55:54.091Z,24.1
2022-08-07T08:56:32.988Z,23.5
2022-08-07T08:57:34.970Z,23.3
2022-08-07T08:58:36.987Z,23.5
2022-08-07T08:59:41.713Z,23.9
2022-08-07T09:00:42.443Z,24.7
2022-08-07T09:01:43.910Z,24.5
2022-08-07T09:02:46.197Z,24.2
2022-08-07T09:03:47.836Z,24.6
2022-08-07T09:04:49.036Z,24.9
2022-08-07T09:05:51.060Z,24.4
2022-08-07T09:06:52.988Z,24.5
2022-08-07T09:07:57.537Z,24.1
2022-08-07T09:08:56.986Z,23.9
2022-08-07T09:09:59.000Z,23.9
2022-08-07T09:11:01.197Z,24.4
2022-08-07T09:12:20.395Z,25.3
2022-08-07T09:13:04.378Z,26
2022-08-07T09:14:05.528Z,26
2022-08-07T09:16:21.178Z,24.3
2022-08-07T09:16:21.252Z,25.8
2022-08-07T09:17:09.427Z,24
2022-08-07T09:18:15.856Z,23.7
2022-08-07T09:19:52.505Z,23.4
2022-08-07T09:20:35.082Z,23.2
2022-08-07T09:21:34.555Z,23.7
2022-08-07T09:22:23.263Z,24.4
2022-08-07T09:24:29.721Z,25
2022-08-07T09:24:30.094Z,25.2
2022-08-07T09:25:24.301Z,24.9
2022-08-07T09:26:26.042Z,24
2022-08-07T09:27:28.841Z,23.6
2022-08-07T09:30:02.624Z,23.9
2022-08-07T09:30:02.633Z,24
2022-08-07T09:30:34.057Z,24.1
2022-08-07T09:31:38.759Z,24.1
2022-08-07T09:32:38.215Z,23.8
2022-08-07T09:33:41.461Z,23.4
2022-08-07T09:34:42.038Z,23.1
2022-08-07T09:36:01.592Z,22.8
2022-08-07T09:36:49.765Z,22.9
2022-08-07T09:37:53.802Z,22.5
2022-08-07T09:38:50.028Z,22.8
2022-08-07T09:39:53.569Z,22.6
2022-08-07T09:40:51.777Z,22.3
2022-08-07T09:41:58.805Z,22.2
2022-08-07T09:42:54.110Z,22.1
2022-08-07T09:44:05.397Z,21.6
2022-08-07T09:46:29.116Z,22
2022-08-07T09:47:26.605Z,21.5
2022-08-07T09:47:26.625Z,22.7
2022-08-07T09:48:11.976Z,23.4
2022-08-07T09:50:00.245Z,23.9
2022-08-07T09:50:18.782Z,23.9
2022-08-07T09:52:09.479Z,23.6
2022-08-07T09:52:33.921Z,23.4
2022-08-07T09:53:24.866Z,24.1
2022-08-07T09:54:28.805Z,24
2022-08-07T09:56:02.894Z,24.5
2022-08-07T09:56:37.429Z,25.3
2022-08-07T09:57:37.519Z,24.4
2022-08-07T09:58:41.556Z,24.3
2022-08-07T09:59:46.634Z,24.2
2022-08-07T10:00:46.276Z,23.5
2022-08-07T10:01:50.844Z,23.3
2022-08-07T10:02:53.720Z,23.2
2022-08-07T10:04:04.365Z,22.5
2022-08-07T10:04:57.146Z,22.3
2022-08-07T10:06:03.628Z,22.5
2022-08-07T10:07:02.143Z,22.8
2022-08-07T10:08:04.755Z,22.8
2022-08-07T10:09:06.938Z,22.7
2022-08-07T10:10:12.013Z,22.9
2022-08-07T10:11:17.363Z,22.2
2022-08-07T10:12:21.678Z,22.1
2022-08-07T10:13:29.918Z,22.1
2022-08-07T10:14:22.767Z,22.7
2022-08-07T10:15:24.941Z,22.8
2022-08-07T10:16:27.195Z,22.1
2022-08-07T10:17:33.837Z,22.1
2022-08-07T10:18:32.972Z,22.4
2022-08-07T10:19:37.720Z,21.9
2022-08-07T10:20:38.697Z,21.4
2022-08-07T10:21:51.203Z,21.3
2022-08-07T10:22:45.488Z,21.3
2022-08-07T10:24:04.302Z,21.5
2022-08-07T10:24:52.531Z,21.7
2022-08-07T10:25:53.538Z,22.9
2022-08-07T10:26:58.033Z,23.4
2022-08-07T10:28:02.444Z,23
2022-08-07T10:29:02.731Z,23.5
2022-08-07T10:30:06.378Z,23.5
2022-08-07T10:31:11.098Z,23.2
2022-08-07T10:32:16.603Z,22.7
2022-08-07T10:33:13.037Z,22.5
2022-08-07T10:34:15.657Z,23
2022-08-07T10:35:16.460Z,23.1
2022-08-07T10:36:17.330Z,24.3
2022-08-07T10:37:19.170Z,24.5
2022-08-07T10:38:36.400Z,24.7
2022-08-07T10:39:22.642Z,24.8
2022-08-07T10:40:23.673Z,24.1
2022-08-07T10:41:47.640Z,23.9
2022-08-07T10:42:31.071Z,23.6
2022-08-07T10:43:29.771Z,23.3
2022-08-07T10:44:38.188Z,23.8
2022-08-07T10:45:44.264Z,23.9
2022-08-07T10:46:32.783Z,23.3
2022-08-07T10:47:51.338Z,22.9
2022-08-07T10:48:38.252Z,22
2022-08-07T10:49:45.421Z,21.7
2022-08-07T10:50:42.239Z,21.8
2022-08-07T10:51:57.830Z,22.4
2022-08-07T10:52:48.606Z,23.2
2022-08-07T10:53:48.504Z,23.8
2022-08-07T10:54:53.587Z,24.7
2022-08-07T10:55:53.387Z,25
2022-08-07T10:56:54.669Z,25.4
2022-08-07T10:57:56.557Z,25.2
2022-08-07T10:58:59.509Z,24.3
2022-08-07T10:59:59.620Z,24
2022-08-07T11:01:01.413Z,24.1
2022-08-07T11:02:05.162Z,23.9
2022-08-07T11:03:04.495Z,22.9
2022-08-07T11:04:16.906Z,22.5
2022-08-07T11:05:10.617Z,22
2022-08-07T11:06:11.252Z,22.2
2022-08-07T11:07:15.300Z,22.2
2022-08-07T11:08:16.394Z,22.4
2022-08-07T11:10:08.051Z,22.3
2022-08-07T11:10:18.663Z,22.1
2022-08-07T11:11:20.323Z,22
2022-08-07T11:12:31.929Z,21.9
2022-08-07T11:14:42.931Z,21.6
2022-08-07T11:14:43.050Z,21.5
2022-08-07T11:15:31.695Z,21.8
2022-08-07T11:16:29.865Z,22.2
2022-08-07T11:17:42.927Z,23.1
2022-08-07T11:18:31.087Z,23.1
2022-08-07T11:19:32.400Z,23.3
2022-08-07T11:20:34.267Z,22.6
2022-08-07T11:21:40.717Z,22.3
2022-08-07T11:22:44.194Z,22.9
2022-08-07T11:23:39.700Z,23.1
2022-08-07T11:24:45.461Z,23.4
2022-08-07T11:25:48.318Z,23.3
2022-08-07T11:26:48.399Z,22.4
2022-08-07T11:28:01.028Z,21.3
2022-08-07T11:28:51.294Z,21.1
2022-08-07T11:30:09.977Z,21
2022-08-07T11:30:48.700Z,20.7
2022-08-07T11:31:49.631Z,20.4
2022-08-07T11:32:50.653Z,20.6
2022-08-07T11:33:53.433Z,21.2
2022-08-07T11:34:53.300Z,20.8
2022-08-07T11:35:59.409Z,20.6
2022-08-07T11:36:57.286Z,20.3
2022-08-07T11:38:10.641Z,21.2
2022-08-07T11:38:59.681Z,21.4
2022-08-07T11:40:02.097Z,21.5
2022-08-07T11:41:02.317Z,21
2022-08-07T11:42:04.285Z,20.9
2022-08-07T11:43:06.285Z,20.9
2022-08-07T11:44:11.300Z,21.4
2022-08-07T11:45:12.306Z,21.9
2022-08-07T11:46:12.302Z,22.2
2022-08-07T11:47:14.278Z,22.8
2022-08-07T11:48:18.101Z,24
2022-08-07T11:49:28.967Z,24.1
2022-08-07T11:50:30.898Z,24
2022-08-07T11:51:22.492Z,24.2
2022-08-07T11:52:29.171Z,24.6
2022-08-07T11:53:25.486Z,25.1
2022-08-07T11:58:33.081Z,24.4
2022-08-07T12:00:08.675Z,24
2022-08-07T12:00:27.692Z,23.6
2022-08-07T12:01:29.554Z,23.8
2022-08-07T12:02:31.021Z,23.2
2022-08-07T12:03:41.267Z,23.1
2022-08-07T12:04:34.369Z,23.7
2022-08-07T12:05:41.829Z,23.7
2022-08-07T12:06:39.420Z,24.1
2022-08-07T12:07:38.878Z,24.3
2022-08-07T12:08:38.728Z,24.9
2022-08-07T12:09:39.781Z,23.4
2022-08-07T12:10:41.804Z,23.6
2022-08-07T12:11:43.182Z,23.2
2022-08-07T12:12:44.339Z,22.7
2022-08-07T12:13:47.656Z,22.3
2022-08-07T12:14:53.813Z,22.7
2022-08-07T12:16:05.538Z,23.3
2022-08-07T12:16:50.749Z,23.2
2022-08-07T12:17:58.438Z,23.4
2022-08-07T12:18:54.287Z,23
2022-08-07T12:19:56.257Z,22.4
2022-08-07T12:20:56.729Z,22.2
2022-08-07T12:22:36.827Z,22.2
2022-08-07T12:22:59.066Z,22
2022-08-07T12:24:06.445Z,21.8
2022-08-07T12:25:02.172Z,22.2
2022-08-07T12:26:03.548Z,22
2022-08-07T12:27:04.371Z,22
2022-08-07T12:28:10.022Z,21.6
2022-08-07T12:29:08.403Z,21.8
2022-08-07T12:30:10.503Z,22.3
2022-08-07T12:31:17.124Z,22.6
2022-08-07T12:32:14.490Z,22.8
2022-08-07T12:33:19.068Z,23.7
2022-08-07T12:34:16.831Z,24.2
2022-08-07T12:35:17.745Z,24.2
2022-08-07T12:36:18.743Z,24.7
2022-08-07T12:37:23.214Z,24.7
2022-08-07T12:38:30.679Z,24.1
2022-08-07T12:39:43.408Z,23.3
2022-08-07T12:40:48.450Z,23.3
2022-08-07T12:41:24.431Z,22.9
2022-08-07T12:42:27.459Z,22.5
2022-08-07T12:44:03.270Z,22.8
2022-08-07T12:44:27.823Z,23.4
2022-08-07T12:45:28.795Z,22.9
2022-08-07T12:46:32.621Z,23.2
2022-08-07T12:47:31.107Z,22.7
2022-08-07T12:48:41.331Z,22.9
2022-08-07T12:49:40.305Z,22.7
2022-08-07T12:50:38.329Z,22.5
2022-08-07T12:51:46.880Z,22.5
2022-08-07T12:52:36.427Z,22.3
2022-08-07T12:54:02.461Z,21.9
2022-08-07T12:54:41.229Z,21.8
2022-08-07T12:56:02.231Z,22.2
2022-08-07T12:56:50.810Z,22.8
2022-08-07T12:58:00.546Z,23.9
2022-08-07T12:58:53.128Z,24.1
2022-08-07T12:59:54.110Z,23.5
2022-08-07T13:00:50.859Z,23.5
2022-08-07T13:01:50.851Z,23.3
2022-08-07T13:02:52.434Z,22.4
2022-08-07T13:04:00.603Z,22
2022-08-07T13:05:02.027Z,22
2022-08-07T13:06:04.254Z,23
2022-08-07T13:07:01.442Z,22.4
2022-08-07T13:08:13.323Z,22.1
2022-08-07T13:09:01.434Z,22.1
2022-08-07T13:10:20.202Z,22.6
2022-08-07T13:11:03.878Z,23.5
2022-08-07T13:12:09.993Z,23.9
2022-08-07T13:13:07.452Z,23.4
2022-08-07T13:14:09.471Z,23
2022-08-07T13:15:10.864Z,23.5
2022-08-07T13:16:11.910Z,23.5
2022-08-07T13:17:12.829Z,23.8
2022-08-07T13:18:25.927Z,23.3
2022-08-07T13:19:18.319Z,23.7
2022-08-07T13:20:15.829Z,23.6
2022-08-07T13:21:35.121Z,23.3
2022-08-07T13:22:20.093Z,22.7
2022-08-07T13:24:00.512Z,22.4
2022-08-07T13:24:19.847Z,22
2022-08-07T13:25:24.026Z,21.9
2022-08-07T13:26:25.499Z,21.9
2022-08-07T13:27:25.490Z,22.3
2022-08-07T13:28:27.615Z,23.2
2022-08-07T13:29:34.743Z,23.7
2022-08-07T13:30:39.807Z,24.3
2022-08-07T13:31:45.987Z,24.2
2022-08-07T13:32:37.498Z,24.4
2022-08-07T13:34:32.283Z,24.5
2022-08-07T13:34:37.400Z,25
2022-08-07T13:36:00.060Z,24.3
2022-08-07T13:36:40.715Z,23.7
2022-08-07T13:37:42.486Z,23.1
2022-08-07T13:38:44.600Z,23.2
2022-08-07T13:39:49.646Z,22.4
2022-08-07T13:40:47.962Z,22.1
2022-08-07T13:41:48.928Z,22.2
2022-08-07T13:42:49.885Z,22.6
2022-08-07T13:43:52.413Z,22.4
2022-08-07T13:44:55.152Z,22.6
2022-08-07T13:46:07.717Z,22.8
2022-08-07T13:46:55.521Z,22.4
2022-08-07T13:48:06.643Z,22.3
2022-08-07T13:48:59.764Z,22
2022-08-07T13:50:31.927Z,22.6
2022-08-07T13:51:21.233Z,22.5
2022-08-07T13:52:23.194Z,22.3
2022-08-07T13:53:07.524Z,22.5
2022-08-07T13:54:09.529Z,23
2022-08-07T13:55:13.295Z,23.4
2022-08-07T13:56:13.534Z,24.3
2022-08-07T13:57:24.005Z,24.6
2022-08-07T13:58:20.499Z,24.6
2022-08-07T13:59:18.895Z,25.3
2022-08-07T14:00:26.544Z,25.4
2022-08-07T14:01:22.182Z,25.4
2022-08-07T14:02:29.824Z,25
2022-08-07T14:03:28.845Z,24.6
2022-08-07T14:04:29.650Z,23.7
2022-08-07T14:05:29.109Z,23.9